עמוד ראשי
METAR-TAF:

METAR-TAF

שדות תעופה :

Shageluk, אלסקה, ארצות הברית

קו רוחב: 62-41-32N, קו אורך: 159-34-09W, גובה: 24מטר

תצפית מזג אוויר נוכחית

הדו"ח נערך לפני 26דקות, בשעה 13:02 UTC
רוח 4קשר מכיוון דרום/דרום-מזרח
טמפרטורת 11 צלסיוס
לחות 82%
לחץ 1017 hPa
ראות: 16.1קילומטר
שמיים נקיים

METAR: PAHX 201302Z AUTO 15004KT 10SM CLR 11/08 A3003 RMK AO2 SLP169 T01110083

זמן: 05:28 (13:28 UTC)


TAF: חסר

תצפיות ותחזיות מזג אוויר לגבי יותר מ- 4,000 שדות תעופה ברחבי העולם. דוחות METAR ו- TAF.

התחנות הזמינות מסומנות בנקודות צהובות ואדומות על גבי המפה.

העבר את העכבר לנקודה הצבעונית על מנת לראות את שם התחנה.

לאחר מכן, לחץ כדי לראות את תוכן ואת תחזיות מזג האוויר.

כדי לשנות את המפה: לחץ על הכפתורים הירוקים עם הפלוס השחור כדי להתקרב; על הכפתור הירוק עם המקף כדי להתרחק; או בחיצים הירוקים למפות סמוכות.


METAR-TAF: